Time;durP1;ratioP1;P1;durP2;ratioP2;P2;SDS_P1;SDS_P2;PMS_P1;PMS_P2;Temp;Humidity;BMP_temperature;BMP_pressure;BME280_temperature;BME280_humidity;BME280_pressure;Samples;Min_cycle;Max_cycle;Signal;HPM_P1;HPM_P2
2023/08/26 00:01:30;;;;;;;8.43;5.90;;;;;;;27.35;46.73;99519.72;5051416;28;20029;-43
2023/08/26 00:03:56;;;;;;;7.47;5.97;;;;;;;27.38;46.76;99514.44;5051317;28;20029;-46
2023/08/26 00:06:21;;;;;;;9.70;5.70;;;;;;;27.61;46.08;99520.53;5051234;28;20045;-45
2023/08/26 00:08:47;;;;;;;8.88;6.13;;;;;;;27.50;46.62;99516.53;5051117;28;20391;-46
2023/08/26 00:11:12;;;;;;;7.82;5.88;;;;;;;27.48;46.62;99511.38;5051215;28;20025;-45
2023/08/26 00:13:37;;;;;;;7.95;5.60;;;;;;;27.54;46.48;99513.94;5051442;28;20083;-45
2023/08/26 00:16:03;;;;;;;8.45;6.35;;;;;;;27.50;46.65;99513.78;5051475;28;20044;-44
2023/08/26 00:18:28;;;;;;;10.98;5.90;;;;;;;27.72;45.73;99512.00;5051268;28;20032;-44
2023/08/26 00:20:56;;;;;;;7.18;5.78;;;;;;;27.50;46.22;99516.53;5051303;28;20115;-44
2023/08/26 00:23:21;;;;;;;7.10;5.50;;;;;;;27.68;45.76;99512.66;5051146;28;20037;-44
2023/08/26 00:25:47;;;;;;;8.07;5.65;;;;;;;27.41;46.27;99513.78;5051408;28;20392;-43
2023/08/26 00:28:12;;;;;;;7.75;5.38;;;;;;;27.42;46.02;99514.59;5051309;28;20080;-46
2023/08/26 00:30:38;;;;;;;6.70;5.25;;;;;;;27.28;46.21;99509.28;5050567;28;20013;-44
2023/08/26 00:33:03;;;;;;;6.47;5.28;;;;;;;27.14;46.36;99497.69;5051266;28;20103;-47
2023/08/26 00:35:29;;;;;;;7.22;5.25;;;;;;;27.07;46.64;99503.59;5051234;28;20106;-46
2023/08/26 00:37:54;;;;;;;6.65;5.20;;;;;;;27.09;46.61;99510.38;5051011;28;20045;-46
2023/08/26 00:40:20;;;;;;;7.35;5.28;;;;;;;27.16;46.23;99512.63;5050812;28;20033;-45
2023/08/26 00:42:45;;;;;;;6.30;4.75;;;;;;;27.29;45.97;99508.16;5050575;28;20032;-43
2023/08/26 00:45:11;;;;;;;8.20;4.65;;;;;;;27.12;46.25;99511.66;5050793;28;20024;-43
2023/08/26 00:47:37;;;;;;;9.43;4.80;;;;;;;27.22;45.89;99505.06;5051115;28;20109;-43
2023/08/26 00:50:04;;;;;;;6.13;4.60;;;;;;;27.38;45.36;99506.25;5050835;28;20029;-45
2023/08/26 00:52:30;;;;;;;7.32;4.57;;;;;;;27.17;45.74;99506.03;5050850;28;20499;-47
2023/08/26 00:54:56;;;;;;;7.38;4.30;;;;;;;26.79;46.46;99512.06;5050743;28;20033;-45
2023/08/26 00:57:22;;;;;;;5.90;4.25;;;;;;;26.98;46.25;99509.06;5050859;28;20052;-45
2023/08/26 00:59:48;;;;;;;8.30;3.97;;;;;;;27.16;45.69;99509.09;5050901;28;20139;-44
2023/08/26 01:02:14;;;;;;;6.55;4.43;;;;;;;27.22;45.66;99505.88;5050818;28;20020;-45
2023/08/26 01:04:39;;;;;;;6.35;4.35;;;;;;;27.28;45.53;99499.19;5051064;28;20369;-44
2023/08/26 01:07:05;;;;;;;5.53;4.30;;;;;;;26.99;46.11;99491.53;5050892;28;20078;-46
2023/08/26 01:09:30;;;;;;;6.18;4.32;;;;;;;26.80;46.86;99499.22;5050369;28;20028;-41
2023/08/26 01:12:10;;;;;;;6.07;4.15;;;;;;;26.70;47.06;99503.84;5050276;28;20572;-44
2023/08/26 01:14:53;;;;;;;5.85;4.20;;;;;;;26.71;46.81;99502.75;5050622;28;20025;-46
2023/08/26 01:17:19;;;;;;;6.90;4.30;;;;;;;26.75;46.82;99500.19;5050511;28;20035;-45
2023/08/26 01:19:45;;;;;;;5.18;3.97;;;;;;;26.77;46.80;99497.94;5050435;28;20029;-46
2023/08/26 01:22:12;;;;;;;5.80;4.28;;;;;;;26.72;46.77;99498.88;5050400;28;20392;-47
2023/08/26 01:24:40;;;;;;;5.97;4.00;;;;;;;26.98;46.13;99498.16;5050655;28;20033;-46
2023/08/26 01:27:07;;;;;;;6.50;4.20;;;;;;;26.63;46.65;99481.69;5050386;28;20396;-42
2023/08/26 01:29:32;;;;;;;4.63;4.00;;;;;;;26.35;47.15;99486.56;5050533;28;20033;-43
2023/08/26 01:32:24;;;;;;;5.80;3.75;;;;;;;26.27;47.15;99488.13;5050544;28;20040;-46
2023/08/26 01:34:54;;;;;;;6.88;3.70;;;;;;;26.14;47.18;99484.38;5042181;28;20124;-46
2023/08/26 01:37:22;;;;;;;4.28;3.40;;;;;;;26.07;47.05;99475.84;5050603;28;20057;-48
2023/08/26 01:39:49;;;;;;;4.93;4.00;;;;;;;25.99;47.61;99486.69;5049950;28;20171;-45
2023/08/26 01:42:18;;;;;;;6.22;3.50;;;;;;;26.02;47.09;99475.16;5050555;28;20550;-43
2023/08/26 01:44:44;;;;;;;;;;;;;;;25.93;47.50;99478.66;5050612;28;20136;-43
2023/08/26 01:47:09;;;;;;;4.90;3.55;;;;;;;25.83;47.81;99486.25;5050255;28;19916;-43
2023/08/26 01:49:34;;;;;;;5.78;3.75;;;;;;;25.96;47.36;99482.66;5050337;28;20044;-42
2023/08/26 01:52:00;;;;;;;4.15;3.67;;;;;;;25.88;47.55;99486.13;5050323;28;20052;-47
2023/08/26 01:54:25;;;;;;;6.07;3.85;;;;;;;25.72;47.54;99496.59;5052436;28;20433;-47
2023/08/26 01:56:51;;;;;;;7.45;3.90;;;;;;;25.61;48.05;99492.50;5053977;28;20088;-45
2023/08/26 01:59:16;;;;;;;5.75;3.85;;;;;;;25.77;47.66;99487.50;5054043;28;20033;-45
2023/08/26 02:01:42;;;;;;;4.95;3.70;;;;;;;25.79;47.56;99485.25;5053883;28;20028;-43
2023/08/26 02:04:07;;;;;;;6.47;3.83;;;;;;;25.94;46.65;99479.44;5053766;28;20021;-44
2023/08/26 02:06:33;;;;;;;8.95;3.53;;;;;;;25.98;46.78;99488.59;5054103;28;20052;-47
2023/08/26 02:08:58;;;;;;;7.32;3.97;;;;;;;25.84;47.11;99487.88;5053720;28;20350;-46
2023/08/26 02:11:24;;;;;;;6.60;3.60;;;;;;;25.89;46.98;99493.16;5052710;28;20071;-43
2023/08/26 02:13:49;;;;;;;6.50;3.88;;;;;;;25.72;47.32;99491.13;5053676;28;20449;-45
2023/08/26 02:16:14;;;;;;;5.38;3.67;;;;;;;25.96;46.99;99496.28;5053573;28;20036;-43
2023/08/26 02:18:40;;;;;;;5.78;3.60;;;;;;;25.88;46.80;99486.91;5053547;28;20033;-45
2023/08/26 02:21:05;;;;;;;5.40;3.88;;;;;;;25.67;47.54;99497.53;5053388;28;20462;-44
2023/08/26 02:23:31;;;;;;;6.32;3.80;;;;;;;25.73;47.25;99490.81;5053574;28;20052;-43
2023/08/26 02:25:56;;;;;;;6.57;3.60;;;;;;;25.70;47.45;99493.38;5053349;28;20017;-47
2023/08/26 02:28:21;;;;;;;9.35;3.90;;;;;;;25.71;47.45;99489.53;5053303;28;20043;-45
2023/08/26 02:30:47;;;;;;;4.72;3.45;;;;;;;25.68;47.71;99495.59;5053418;28;20021;-46
2023/08/26 02:33:12;;;;;;;4.85;3.70;;;;;;;25.71;47.54;99489.53;5053403;28;20452;-47
2023/08/26 02:35:38;;;;;;;7.35;3.88;;;;;;;25.85;47.59;99494.91;5053442;28;20024;-44
2023/08/26 02:38:03;;;;;;;6.20;4.00;;;;;;;25.83;47.41;99480.78;5052979;28;20416;-41
2023/08/26 02:40:29;;;;;;;6.10;3.55;;;;;;;25.70;47.81;99477.84;5052776;28;20503;-42
2023/08/26 02:42:54;;;;;;;6.35;3.70;;;;;;;25.80;47.43;99474.06;5052638;28;20041;-44
2023/08/26 02:45:20;;;;;;;7.47;3.78;;;;;;;25.62;47.87;99473.13;5052316;28;20036;-43
2023/08/26 02:47:46;;;;;;;5.25;3.90;;;;;;;25.67;48.13;99483.09;5052533;28;20027;-46
2023/08/26 02:50:12;;;;;;;6.78;4.20;;;;;;;25.74;47.97;99483.44;5052417;28;20055;-45
2023/08/26 02:52:37;;;;;;;4.72;3.55;;;;;;;25.62;48.48;99483.22;5052848;28;20057;-45
2023/08/26 02:55:03;;;;;;;6.65;3.90;;;;;;;25.63;48.35;99480.19;5052862;28;20024;-48
2023/08/26 02:57:28;;;;;;;7.25;3.67;;;;;;;25.61;48.62;99484.31;5052177;28;20032;-46
2023/08/26 02:59:54;;;;;;;6.15;4.40;;;;;;;25.53;48.24;99481.25;5052688;28;20411;-46
2023/08/26 03:02:24;;;;;;;5.95;3.70;;;;;;;25.78;47.75;99487.19;5052119;28;20025;-43
2023/08/26 03:04:50;;;;;;;7.63;3.60;;;;;;;25.65;48.43;99491.59;5052566;28;20029;-41
2023/08/26 03:07:15;;;;;;;8.27;3.72;;;;;;;25.85;47.67;99486.72;5052146;28;20025;-42
2023/08/26 03:09:41;;;;;;;7.53;3.88;;;;;;;25.84;47.68;99485.13;5052378;28;20412;-45
2023/08/26 03:12:07;;;;;;;6.68;4.00;;;;;;;25.86;47.55;99488.34;5052818;28;20400;-43
2023/08/26 03:14:32;;;;;;;5.90;3.88;;;;;;;25.63;48.42;99493.03;5052653;28;20036;-45
2023/08/26 03:16:58;;;;;;;8.45;3.97;;;;;;;25.56;48.83;99493.44;5051378;28;20024;-47
2023/08/26 03:19:23;;;;;;;7.80;4.00;;;;;;;25.71;48.60;99493.06;5052694;28;20100;-43
2023/08/26 03:21:49;;;;;;;8.98;4.20;;;;;;;25.58;49.36;99493.13;5052030;28;20515;-47
2023/08/26 03:24:16;;;;;;;5.38;3.90;;;;;;;25.57;49.68;99503.22;5052138;28;20039;-44
2023/08/26 03:26:42;;;;;;;5.47;3.78;;;;;;;25.62;49.64;99494.91;5052358;28;20460;-43
2023/08/26 03:29:07;;;;;;;6.80;3.75;;;;;;;25.61;49.30;99492.50;5052460;28;20056;-44
2023/08/26 03:31:33;;;;;;;5.45;3.78;;;;;;;25.49;50.32;99502.06;5052371;28;20128;-42
2023/08/26 03:33:58;;;;;;;6.97;4.07;;;;;;;25.47;50.41;99514.34;5052206;28;20032;-44
2023/08/26 03:36:24;;;;;;;5.95;4.25;;;;;;;25.55;49.78;99517.16;5052086;28;20033;-45
2023/08/26 03:38:49;;;;;;;8.43;4.20;;;;;;;25.63;49.67;99520.25;5052045;28;20132;-43
2023/08/26 03:41:15;;;;;;;9.15;4.78;;;;;;;25.75;49.06;99523.22;5052067;28;20112;-45
2023/08/26 03:43:40;;;;;;;6.38;4.65;;;;;;;25.67;49.39;99527.50;5051678;28;20433;-44
2023/08/26 03:46:05;;;;;;;6.13;4.53;;;;;;;25.51;50.31;99532.50;5051920;28;20028;-43
2023/08/26 03:48:31;;;;;;;7.30;4.40;;;;;;;25.48;50.35;99530.41;5051876;28;20033;-43
2023/08/26 03:50:57;;;;;;;7.53;4.30;;;;;;;25.58;50.15;99531.28;5052131;28;20025;-43
2023/08/26 03:53:24;;;;;;;7.28;4.20;;;;;;;25.45;50.51;99535.66;5051936;28;20032;-44
2023/08/26 03:55:49;;;;;;;8.95;4.43;;;;;;;25.39;50.77;99528.72;5051722;28;20025;-45
2023/08/26 03:58:15;;;;;;;4.88;4.30;;;;;;;25.54;50.39;99531.09;5051536;28;20021;-43
2023/08/26 04:00:41;;;;;;;6.63;4.63;;;;;;;25.60;50.62;99529.03;5051768;28;20369;-44
2023/08/26 04:03:06;;;;;;;6.63;4.28;;;;;;;25.68;50.65;99529.13;5052205;28;20033;-44
2023/08/26 04:05:33;;;;;;;8.60;4.53;;;;;;;25.89;49.88;99528.59;5051613;28;20046;-42
2023/08/26 04:07:59;;;;;;;6.47;4.30;;;;;;;26.07;49.64;99535.81;5051629;28;20087;-46
2023/08/26 04:10:25;;;;;;;8.57;5.10;;;;;;;25.92;49.82;99541.66;5051703;28;20128;-44
2023/08/26 04:12:51;;;;;;;6.30;4.32;;;;;;;25.71;51.10;99541.31;5051465;28;20463;-42
2023/08/26 04:15:16;;;;;;;8.00;4.32;;;;;;;25.91;50.35;99540.84;5051452;28;20115;-43
2023/08/26 04:17:42;;;;;;;7.75;4.90;;;;;;;26.41;48.96;99539.84;5050554;28;20029;-42
2023/08/26 04:20:09;;;;;;;5.97;4.50;;;;;;;26.17;49.85;99531.22;5051401;28;20031;-42
2023/08/26 04:22:34;;;;;;;9.13;5.00;;;;;;;26.28;49.39;99529.84;5051237;28;20071;-42
2023/08/26 04:25:00;;;;;;;16.20;5.10;;;;;;;26.45;48.77;99535.38;5051661;28;20037;-43
2023/08/26 04:27:27;;;;;;;8.63;4.65;;;;;;;26.69;48.17;99542.38;5051200;28;20033;-43
2023/08/26 04:29:53;;;;;;;7.38;4.72;;;;;;;26.47;49.97;99537.78;5051346;28;20032;-42
2023/08/26 04:32:18;;;;;;;7.15;5.03;;;;;;;26.57;49.52;99542.94;5051347;28;20025;-43
2023/08/26 04:34:45;;;;;;;8.00;5.82;;;;;;;26.87;48.94;99535.84;5051387;28;20028;-46
2023/08/26 04:37:12;;;;;;;12.43;6.20;;;;;;;26.91;49.04;99534.09;5051292;28;20097;-44
2023/08/26 04:39:37;;;;;;;7.32;5.95;;;;;;;27.08;48.95;99536.06;5050791;28;20493;-42
2023/08/26 04:42:03;;;;;;;10.63;6.32;;;;;;;27.34;48.55;99549.00;5050664;28;20036;-42
2023/08/26 04:44:28;;;;;;;9.73;6.85;;;;;;;27.36;49.41;99557.66;5050964;28;20075;-41
2023/08/26 04:46:54;;;;;;;10.05;6.53;;;;;;;27.56;48.43;99555.41;5051197;28;20033;-44
2023/08/26 04:49:19;;;;;;;9.40;5.95;;;;;;;27.70;48.82;99556.03;5050979;28;20033;-42
2023/08/26 04:51:52;;;;;;;17.35;5.95;;;;;;;27.92;48.16;99555.09;5051310;28;20055;-42
2023/08/26 04:54:18;;;;;;;10.88;6.15;;;;;;;27.97;48.18;99556.84;5051146;28;20032;-42
2023/08/26 04:56:43;;;;;;;12.77;5.28;;;;;;;28.08;47.53;99561.66;5050772;28;20033;-45
2023/08/26 04:59:09;;;;;;;8.40;5.40;;;;;;;28.29;47.05;99566.44;5050960;28;20086;-43
2023/08/26 05:01:34;;;;;;;8.38;5.07;;;;;;;28.45;45.25;99550.31;5052300;28;20032;-42
2023/08/26 05:04:00;;;;;;;8.75;5.22;;;;;;;28.81;44.42;99557.25;5049285;28;20032;-42
2023/08/26 05:06:25;;;;;;;10.95;5.22;;;;;;;29.13;44.12;99550.34;5050597;28;20044;-43
2023/08/26 05:08:51;;;;;;;7.63;5.40;;;;;;;29.20;44.05;99556.06;5050638;28;20063;-42
2023/08/26 05:11:16;;;;;;;7.60;5.53;;;;;;;29.52;43.26;99550.19;5050067;28;20020;-43
2023/08/26 05:13:41;;;;;;;9.52;5.70;;;;;;;29.71;42.69;99557.94;5049915;28;20029;-44
2023/08/26 05:16:07;;;;;;;7.53;6.10;;;;;;;29.52;43.64;99551.00;5050207;28;20029;-43
2023/08/26 05:18:32;;;;;;;7.35;6.07;;;;;;;29.94;42.87;99548.22;5050060;28;20035;-44
2023/08/26 05:20:59;;;;;;;8.75;6.05;;;;;;;29.93;42.80;99552.13;5050027;28;20082;-45
2023/08/26 05:23:25;;;;;;;8.77;6.57;;;;;;;30.19;41.96;99548.28;5050017;28;20039;-43
2023/08/26 05:25:50;;;;;;;8.95;6.18;;;;;;;30.42;41.56;99556.13;5049612;28;20029;-43
2023/08/26 05:28:16;;;;;;;8.10;6.10;;;;;;;30.63;41.16;99547.81;5050149;28;20052;-42
2023/08/26 05:30:42;;;;;;;6.85;6.00;;;;;;;30.99;40.46;99541.53;5054171;28;20029;-42
2023/08/26 05:33:08;;;;;;;9.85;6.43;;;;;;;31.06;40.59;99541.75;5054214;28;20017;-45
2023/08/26 05:35:33;;;;;;;9.77;6.35;;;;;;;31.36;40.29;99546.97;5054043;28;20021;-45
2023/08/26 05:37:59;;;;;;;9.45;6.78;;;;;;;31.67;39.57;99551.00;5054035;28;20401;-42
2023/08/26 05:40:28;;;;;;;7.72;6.53;;;;;;;32.23;38.22;99556.44;5053670;28;20075;-42
2023/08/26 05:42:55;;;;;;;8.13;6.45;;;;;;;32.32;38.59;99562.59;5053982;28;20099;-43
2023/08/26 05:45:21;;;;;;;7.90;7.03;;;;;;;32.64;37.46;99562.63;5052960;28;20122;-44
2023/08/26 05:47:46;;;;;;;9.15;6.80;;;;;;;32.58;37.47;99561.31;5052075;28;20021;-44
2023/08/26 05:50:12;;;;;;;9.73;7.00;;;;;;;32.69;37.32;99567.06;5053808;28;20071;-43
2023/08/26 05:52:37;;;;;;;9.60;7.10;;;;;;;32.89;37.25;99560.47;5053594;28;20103;-42
2023/08/26 05:55:03;;;;;;;7.13;6.40;;;;;;;32.66;37.36;99571.34;5050732;28;20040;-44
2023/08/26 05:57:28;;;;;;;10.82;7.30;;;;;;;32.71;37.46;99562.00;5053225;28;20021;-43
2023/08/26 05:59:54;;;;;;;10.20;6.82;;;;;;;32.97;36.74;99568.91;5053384;28;20104;-40
2023/08/26 06:02:19;;;;;;;9.00;6.70;;;;;;;33.25;36.49;99563.25;5049858;28;20442;-43
2023/08/26 06:04:44;;;;;;;10.88;6.40;;;;;;;33.27;36.52;99564.47;5051518;28;20079;-43
2023/08/26 06:07:10;;;;;;;9.48;6.63;;;;;;;33.63;35.87;99570.78;5052476;28;20017;-44
2023/08/26 06:09:35;;;;;;;7.40;6.15;;;;;;;34.56;34.53;99560.66;5052557;28;20531;-41
2023/08/26 06:12:01;;;;;;;9.45;6.25;;;;;;;34.32;34.93;99563.81;5051275;28;20021;-45
2023/08/26 06:14:26;;;;;;;10.90;6.47;;;;;;;33.97;34.65;99548.19;5052249;28;20029;-43
2023/08/26 06:16:52;;;;;;;9.57;5.82;;;;;;;34.18;34.28;99565.16;5052019;28;20529;-46
2023/08/26 06:19:17;;;;;;;6.60;5.57;;;;;;;34.31;34.39;99568.53;5050933;28;20036;-44
2023/08/26 06:21:42;;;;;;;9.43;6.15;;;;;;;34.38;33.91;99571.41;5052050;28;20090;-45
2023/08/26 06:24:08;;;;;;;6.38;5.68;;;;;;;34.57;33.74;99569.75;5051574;28;20481;-44
2023/08/26 06:26:33;;;;;;;9.55;5.70;;;;;;;34.17;33.79;99571.81;5052365;28;20032;-44
2023/08/26 06:28:59;;;;;;;7.07;5.78;;;;;;;35.25;32.69;99573.59;5052751;28;20135;-43
2023/08/26 06:31:24;;;;;;;7.82;5.90;;;;;;;34.57;33.92;99562.25;5052414;28;20364;-43
2023/08/26 06:33:49;;;;;;;6.68;5.80;;;;;;;34.70;33.79;99570.38;5052479;28;20036;-44
2023/08/26 06:36:15;;;;;;;7.65;5.45;;;;;;;35.05;32.87;99570.94;5052525;28;20025;-43
2023/08/26 06:38:40;;;;;;;7.28;5.50;;;;;;;35.35;32.60;99567.38;5051873;28;20107;-44
2023/08/26 06:41:06;;;;;;;7.65;5.10;;;;;;;35.59;32.23;99571.66;5051387;28;20044;-44
2023/08/26 06:43:31;;;;;;;7.28;5.30;;;;;;;35.73;31.88;99579.34;5052654;28;20044;-44
2023/08/26 06:45:57;;;;;;;6.47;5.05;;;;;;;36.05;31.25;99581.69;5052795;28;20021;-46
2023/08/26 06:48:23;;;;;;;8.98;5.40;;;;;;;35.92;31.73;99583.91;5052480;28;20408;-44
2023/08/26 06:50:49;;;;;;;6.82;5.28;;;;;;;36.43;30.67;99587.22;5052374;28;20090;-43
2023/08/26 06:53:21;;;;;;;9.20;5.47;;;;;;;35.91;31.63;99581.50;5052097;28;20047;-44
2023/08/26 06:55:51;;;;;;;8.05;5.45;;;;;;;35.72;31.76;99585.25;5052692;28;20029;-42
2023/08/26 06:58:17;;;;;;;6.18;5.47;;;;;;;35.74;31.10;99594.00;5052276;28;20100;-43
2023/08/26 07:00:42;;;;;;;6.90;5.13;;;;;;;35.91;31.76;99584.28;5052163;28;20174;-43
2023/08/26 07:03:09;;;;;;;5.85;5.20;;;;;;;36.01;31.34;99578.88;5052398;28;20025;-42
2023/08/26 07:05:35;;;;;;;6.10;5.13;;;;;;;36.17;31.42;99577.88;5052215;28;20024;-44
2023/08/26 07:08:01;;;;;;;9.23;5.20;;;;;;;36.48;30.82;99578.53;5052305;28;20104;-43
2023/08/26 07:10:27;;;;;;;7.35;4.97;;;;;;;37.14;29.97;99585.00;5052044;28;20017;-45
2023/08/26 07:12:52;;;;;;;6.40;4.97;;;;;;;36.78;30.19;99579.22;5052122;28;20155;-45
2023/08/26 07:15:17;;;;;;;7.78;5.28;;;;;;;36.59;30.64;99577.47;5052067;28;20032;-45
2023/08/26 07:17:43;;;;;;;6.90;4.80;;;;;;;36.67;30.25;99583.88;5052153;28;20032;-44
2023/08/26 07:20:10;;;;;;;9.80;5.35;;;;;;;36.63;30.40;99585.78;5052084;28;20021;-44
2023/08/26 07:22:36;;;;;;;7.05;5.38;;;;;;;36.75;29.99;99579.97;5051411;28;20017;-45
2023/08/26 07:25:02;;;;;;;7.43;5.20;;;;;;;37.04;29.89;99580.16;5052077;28;20046;-44
2023/08/26 07:27:27;;;;;;;5.95;5.03;;;;;;;37.14;29.49;99582.22;5051893;28;20117;-42
2023/08/26 07:29:53;;;;;;;7.97;5.00;;;;;;;37.86;28.66;99579.00;5051096;28;20021;-46
2023/08/26 07:32:19;;;;;;;6.15;5.22;;;;;;;37.99;28.60;99580.22;5051197;28;20396;-42
2023/08/26 07:34:44;;;;;;;7.22;5.07;;;;;;;37.51;28.39;99580.44;5050976;28;20163;-43
2023/08/26 07:37:10;;;;;;;8.00;5.07;;;;;;;37.35;28.89;99577.97;5049899;28;20546;-42
2023/08/26 07:39:35;;;;;;;6.85;5.20;;;;;;;37.61;28.47;99571.38;5051097;28;20072;-44
2023/08/26 07:42:01;;;;;;;9.85;4.97;;;;;;;37.38;29.21;99571.66;5051305;28;20033;-44
2023/08/26 07:44:26;;;;;;;7.97;5.15;;;;;;;37.44;28.32;99561.00;5051148;28;20106;-46
2023/08/26 07:46:52;;;;;;;7.80;5.00;;;;;;;38.12;28.18;99570.34;5051367;28;20036;-45
2023/08/26 07:49:17;;;;;;;8.73;5.05;;;;;;;38.50;27.36;99561.66;5051478;28;20017;-43
2023/08/26 07:51:43;;;;;;;8.77;4.90;;;;;;;37.83;28.27;99563.13;5051829;28;20092;-41
2023/08/26 07:54:08;;;;;;;8.95;5.10;;;;;;;37.89;27.95;99567.09;5051893;28;20508;-43
2023/08/26 07:56:34;;;;;;;7.88;4.95;;;;;;;37.62;27.85;99563.84;5051502;28;20025;-43
2023/08/26 07:59:00;;;;;;;7.72;4.93;;;;;;;37.59;28.12;99557.09;5051424;28;20075;-45
2023/08/26 08:01:25;;;;;;;7.00;4.60;;;;;;;37.74;28.58;99564.28;5050863;28;20463;-41
2023/08/26 08:03:51;;;;;;;6.20;4.80;;;;;;;37.89;28.13;99558.75;5051197;28;20115;-43
2023/08/26 08:06:16;;;;;;;8.35;4.93;;;;;;;37.51;28.70;99558.25;5049504;28;20494;-43
2023/08/26 08:08:41;;;;;;;10.45;4.90;;;;;;;38.24;27.83;99558.06;5050827;28;20382;-44
2023/08/26 08:11:07;;;;;;;10.35;5.00;;;;;;;38.28;27.64;99547.72;5051108;28;20485;-43
2023/08/26 08:13:32;;;;;;;8.43;5.00;;;;;;;38.11;27.50;99543.75;5050970;28;20040;-40
2023/08/26 08:15:58;;;;;;;5.38;4.50;;;;;;;37.88;27.75;99549.63;5050972;28;20415;-41
2023/08/26 08:18:23;;;;;;;7.55;4.70;;;;;;;38.09;27.60;99546.13;5050680;28;20423;-44
2023/08/26 08:20:49;;;;;;;6.20;4.50;;;;;;;38.44;26.83;99529.88;5050481;28;20463;-41
2023/08/26 08:23:14;;;;;;;7.70;4.85;;;;;;;38.84;26.65;99539.78;5050545;28;20032;-43
2023/08/26 08:25:39;;;;;;;7.20;4.80;;;;;;;38.43;26.84;99539.41;5050560;28;20497;-42
2023/08/26 08:28:05;;;;;;;7.20;4.70;;;;;;;38.42;26.95;99538.59;5050656;28;20072;-42
2023/08/26 08:30:30;;;;;;;9.77;4.82;;;;;;;38.61;27.08;99528.31;5050411;28;20017;-41
2023/08/26 08:32:56;;;;;;;6.70;4.70;;;;;;;38.59;26.83;99530.69;5050426;28;20024;-45
2023/08/26 08:35:21;;;;;;;7.15;5.13;;;;;;;38.24;27.29;99533.06;5050146;28;20044;-44
2023/08/26 08:37:47;;;;;;;6.97;5.00;;;;;;;38.19;27.51;99532.66;5049766;28;20178;-45
2023/08/26 08:40:13;;;;;;;6.00;5.20;;;;;;;38.18;27.98;99528.31;5050229;28;20380;-42
2023/08/26 08:42:43;;;;;;;6.00;4.82;;;;;;;38.41;26.82;99531.47;5049786;28;20431;-44
2023/08/26 08:45:11;;;;;;;6.97;4.90;;;;;;;37.94;27.40;99531.41;5050172;28;20021;-44
2023/08/26 08:47:36;;;;;;;10.57;5.00;;;;;;;37.93;27.75;99529.03;5050170;28;20031;-46
2023/08/26 08:50:02;;;;;;;9.13;5.35;;;;;;;38.22;26.87;99526.31;5050053;28;20028;-42
2023/08/26 08:52:28;;;;;;;8.50;5.03;;;;;;;37.81;27.92;99529.41;5049957;28;20032;-43
2023/08/26 08:54:54;;;;;;;7.30;5.25;;;;;;;38.09;26.99;99518.34;5050518;28;20032;-42
2023/08/26 08:57:26;;;;;;;6.55;5.05;;;;;;;38.12;27.17;99514.03;5050390;28;20020;-44
2023/08/26 08:59:54;;;;;;;8.15;5.35;;;;;;;38.75;26.48;99505.22;5049627;28;20052;-44
2023/08/26 09:02:20;;;;;;;7.47;5.47;;;;;;;38.84;26.11;99512.00;5049820;28;20025;-42
2023/08/26 09:04:46;;;;;;;5.97;5.05;;;;;;;38.51;27.27;99508.44;5049123;28;20028;-43
2023/08/26 09:07:12;;;;;;;6.78;5.20;;;;;;;38.44;27.35;99502.09;5050138;28;20139;-42
2023/08/26 09:09:38;;;;;;;7.70;5.18;;;;;;;38.52;26.80;99495.34;5049940;28;20025;-42
2023/08/26 09:12:06;;;;;;;5.63;4.78;;;;;;;38.37;26.45;99497.34;5050070;28;20020;-45
2023/08/26 09:14:32;;;;;;;8.70;5.50;;;;;;;37.44;27.54;99503.50;5049894;28;20105;-44
2023/08/26 09:17:00;;;;;;;7.03;5.10;;;;;;;37.52;27.71;99493.22;5049917;28;20025;-43
2023/08/26 09:19:26;;;;;;;8.73;5.23;;;;;;;38.28;26.75;99491.38;5050007;28;20021;-44
2023/08/26 09:21:53;;;;;;;6.28;5.65;;;;;;;38.16;26.18;99494.56;5049839;28;20520;-43
2023/08/26 09:24:19;;;;;;;6.35;5.57;;;;;;;37.81;27.07;99482.22;5050137;28;20028;-43
2023/08/26 09:26:58;;;;;;;10.90;5.60;;;;;;;37.63;27.78;99491.31;5049955;28;20465;-43
2023/08/26 09:29:24;;;;;;;9.43;5.05;;;;;;;37.99;27.17;99480.25;5050183;28;20017;-43
2023/08/26 09:31:52;;;;;;;7.07;5.55;;;;;;;37.70;27.11;99482.19;5049880;28;20390;-43
2023/08/26 09:34:26;;;;;;;7.82;5.65;;;;;;;37.73;27.56;99470.31;5050177;28;20123;-43
2023/08/26 09:36:51;;;;;;;6.00;5.35;;;;;;;37.47;27.53;99475.00;5049883;28;20542;-45
2023/08/26 09:39:17;;;;;;;9.35;5.30;;;;;;;37.89;26.77;99475.47;5049665;28;20485;-43
2023/08/26 09:41:44;;;;;;;6.55;4.93;;;;;;;37.75;26.88;99471.47;5049640;28;20033;-42
2023/08/26 09:44:13;;;;;;;8.52;5.40;;;;;;;37.55;28.21;99464.69;5049760;28;20031;-43
2023/08/26 09:46:42;;;;;;;6.50;5.50;;;;;;;37.30;27.90;99475.72;5049827;28;20401;-43
2023/08/26 09:49:12;;;;;;;7.10;5.60;;;;;;;37.75;27.35;99467.94;5050058;28;20027;-42
2023/08/26 09:51:37;;;;;;;7.47;5.60;;;;;;;38.03;26.95;99458.03;5048993;28;20021;-43
2023/08/26 09:54:05;;;;;;;9.35;5.50;;;;;;;38.30;27.41;99462.00;5049793;28;20035;-44
2023/08/26 09:56:31;;;;;;;5.90;5.25;;;;;;;38.67;26.38;99459.97;5049617;28;20098;-45
2023/08/26 09:58:57;;;;;;;6.82;5.13;;;;;;;38.85;26.09;99449.59;5049403;28;20017;-44
2023/08/26 10:01:23;;;;;;;6.30;5.70;;;;;;;38.44;26.81;99464.00;5049679;28;20033;-44
2023/08/26 10:04:20;;;;;;;6.80;5.88;;;;;;;38.36;26.78;99456.06;5049801;28;20615;-45
2023/08/26 10:06:55;;;;;;;7.40;5.38;;;;;;;38.17;27.12;99460.03;5048937;28;20032;-44
2023/08/26 10:09:39;;;;;;;10.50;6.32;;;;;;;38.28;26.27;99455.28;5049661;28;20029;-44
2023/08/26 10:12:28;;;;;;;5.63;5.07;;;;;;;38.62;26.25;99449.28;5049553;28;20018;-44
2023/08/26 10:14:57;;;;;;;5.80;5.20;;;;;;;38.65;26.58;99445.69;5049734;28;20146;-46
2023/08/26 10:17:28;;;;;;;7.00;5.45;;;;;;;39.09;25.34;99442.41;5052732;28;20040;-45
2023/08/26 10:19:55;;;;;;;6.90;5.15;;;;;;;39.26;25.65;99445.47;5052953;28;20021;-41
2023/08/26 10:22:21;;;;;;;6.03;5.20;;;;;;;38.31;26.44;99441.38;5053184;28;20048;-43
2023/08/26 10:24:47;;;;;;;5.53;5.00;;;;;;;38.04;26.55;99435.44;5052886;28;20060;-43
2023/08/26 10:27:12;;;;;;;5.18;4.68;;;;;;;38.24;26.80;99432.28;5053154;28;20039;-43
2023/08/26 10:29:39;;;;;;;7.40;5.20;;;;;;;38.10;26.12;99438.63;5053075;28;20025;-43
2023/08/26 10:32:21;;;;;;;8.02;5.15;;;;;;;37.89;27.43;99437.41;5052765;28;20028;-44
2023/08/26 10:34:54;;;;;;;7.40;5.18;;;;;;;38.01;26.93;99438.22;5052924;28;20029;-46
2023/08/26 10:37:23;;;;;;;6.65;5.07;;;;;;;38.31;26.46;99423.94;5053047;28;20424;-41
2023/08/26 10:39:49;;;;;;;6.35;5.10;;;;;;;38.72;25.29;99434.56;5052098;28;20156;-46
2023/08/26 10:42:17;;;;;;;7.63;5.10;;;;;;;38.26;26.62;99427.88;5052728;28;20025;-46
2023/08/26 10:44:56;;;;;;;5.60;5.10;;;;;;;38.37;25.92;99425.09;5052298;28;20025;-44
2023/08/26 10:47:40;;;;;;;;;;;;;;;38.04;26.70;99423.50;5052788;28;20120;-45
2023/08/26 10:50:25;;;;;;;6.00;5.00;;;;;;;37.47;27.02;99429.78;5052120;28;19992;-45
2023/08/26 10:53:19;;;;;;;12.20;5.30;;;;;;;37.39;27.42;99417.88;5052249;28;20136;-43
2023/08/26 10:55:47;;;;;;;6.38;5.03;;;;;;;37.80;27.30;99409.25;5052234;28;20095;-46
2023/08/26 10:58:19;;;;;;;;;;;;;;;38.60;26.47;99412.78;5052714;28;20502;-42
2023/08/26 11:00:50;;;;;;;5.63;5.03;;;;;;;38.14;26.92;99401.31;5051900;28;19990;-43
2023/08/26 11:03:20;;;;;;;5.97;4.95;;;;;;;37.17;28.04;99406.75;5051818;28;20021;-43
2023/08/26 11:05:59;;;;;;;8.35;5.60;;;;;;;37.08;28.94;99402.72;5051961;28;20032;-46
2023/08/26 11:08:25;;;;;;;6.00;5.38;;;;;;;37.67;27.77;99394.19;5051875;28;20029;-44
2023/08/26 11:10:51;;;;;;;6.72;5.40;;;;;;;37.90;27.83;99405.66;5052044;28;20028;-43
2023/08/26 11:13:16;;;;;;;10.05;5.47;;;;;;;37.30;28.92;99393.31;5051955;28;20100;-42
2023/08/26 11:15:43;;;;;;;6.03;5.43;;;;;;;37.80;27.88;99391.81;5051625;28;20156;-44
2023/08/26 11:18:11;;;;;;;6.18;4.78;;;;;;;38.39;27.60;99386.59;5051845;28;20607;-42
2023/08/26 11:20:38;;;;;;;9.95;5.20;;;;;;;39.24;26.76;99384.69;5052126;28;20143;-43
2023/08/26 11:23:05;;;;;;;6.07;5.38;;;;;;;39.92;25.97;99383.44;5051663;28;20086;-44
2023/08/26 11:25:32;;;;;;;8.38;5.10;;;;;;;39.13;26.53;99375.63;5051334;28;20168;-42
2023/08/26 11:28:09;;;;;;;9.83;5.57;;;;;;;38.55;27.08;99385.38;5051384;28;20094;-44
2023/08/26 11:30:40;;;;;;;6.07;4.95;;;;;;;37.99;27.09;99377.50;5051384;28;20335;-42
2023/08/26 11:33:11;;;;;;;7.93;4.97;;;;;;;38.16;27.01;99370.38;5051635;28;20028;-43